Terminal Aerodrome Forecast
Issued by NWS Wichita, KS

Home | Current Version | Previous Version | Graphics & Text | Print | Product List | Glossary On
Versions: 1 2 3 4 5 6 7 8 9 10 11 12 13 14 15 16 17
000
FTUS43 KICT 210521
TAFICT
TAF
KICT 210521Z 2106/2206 09010KT P6SM SHRA FEW070 OVC090
     FM211400 10011KT 6SM SHRA OVC015
     FM212100 06010KT 5SM -SHRA OVC008
     FM220000 04008KT P6SM VCSH OVC010
     FM220300 03008KT P6SM VCSH OVC010=

USA.gov is the U.S. government's official web portal to all federal, state and local government web resources and services.